createdAt,value
2023-05-13T00:00:55.859Z,29.17
2023-05-13T00:03:19.297Z,21.30
2023-05-13T00:05:42.717Z,19.55
2023-05-13T00:08:07.444Z,19.00
2023-05-13T00:10:32.266Z,23.65
2023-05-13T00:12:55.528Z,20.08
2023-05-13T00:15:18.951Z,25.52
2023-05-13T00:17:42.246Z,20.73
2023-05-13T00:20:07.902Z,23.50
2023-05-13T00:22:31.218Z,19.30
2023-05-13T00:24:54.571Z,19.20
2023-05-13T00:27:19.192Z,19.90
2023-05-13T00:29:42.499Z,22.88
2023-05-13T00:32:06.734Z,22.35
2023-05-13T00:34:30.009Z,18.95
2023-05-13T00:36:53.293Z,17.02
2023-05-13T00:39:16.740Z,22.08
2023-05-13T00:41:40.047Z,18.90
2023-05-13T00:44:05.252Z,23.45
2023-05-13T00:46:33.181Z,17.23
2023-05-13T00:48:56.724Z,19.58
2023-05-13T00:51:20.160Z,19.85
2023-05-13T00:53:43.943Z,18.40
2023-05-13T00:56:07.822Z,19.17
2023-05-13T00:58:31.164Z,19.80
2023-05-13T01:01:16.569Z,21.33
2023-05-13T01:03:54.978Z,21.15
2023-05-13T01:06:24.902Z,17.95
2023-05-13T01:08:58.398Z,19.48
2023-05-13T01:11:25.729Z,16.52
2023-05-13T01:13:53.965Z,20.10
2023-05-13T01:16:25.628Z,21.90
2023-05-13T01:18:54.679Z,20.60
2023-05-13T01:21:17.967Z,20.42
2023-05-13T01:23:42.636Z,20.77
2023-05-13T01:26:06.297Z,21.20
2023-05-13T01:28:30.616Z,22.63
2023-05-13T01:30:56.151Z,20.45
2023-05-13T01:33:20.024Z,22.17
2023-05-13T01:35:43.565Z,20.65
2023-05-13T01:38:08.478Z,19.85
2023-05-13T01:40:34.571Z,22.90
2023-05-13T01:43:01.654Z,20.27
2023-05-13T01:45:25.461Z,17.95
2023-05-13T01:47:49.318Z,22.58
2023-05-13T01:50:13.114Z,19.50
2023-05-13T01:52:37.938Z,22.70
2023-05-13T01:55:01.656Z,20.95
2023-05-13T01:57:27.281Z,19.50
2023-05-13T01:59:50.628Z,24.35
2023-05-13T02:02:14.106Z,19.65
2023-05-13T02:04:37.858Z,20.88
2023-05-13T02:07:01.307Z,20.90
2023-05-13T02:09:26.824Z,23.95
2023-05-13T02:11:50.121Z,19.77
2023-05-13T02:14:14.819Z,17.02
2023-05-13T02:16:38.194Z,18.35
2023-05-13T02:19:02.996Z,18.40
2023-05-13T02:21:26.288Z,19.88
2023-05-13T02:23:49.674Z,19.48
2023-05-13T02:26:13.000Z,21.10
2023-05-13T02:28:36.374Z,23.65
2023-05-13T02:31:01.165Z,18.77
2023-05-13T02:33:24.546Z,23.70
2023-05-13T02:35:48.693Z,19.92
2023-05-13T02:38:13.107Z,18.90
2023-05-13T02:40:36.437Z,18.98
2023-05-13T02:43:00.025Z,21.08
2023-05-13T02:45:36.729Z,20.23
2023-05-13T02:48:01.428Z,23.33
2023-05-13T02:50:25.153Z,22.33
2023-05-13T02:52:49.295Z,19.45
2023-05-13T02:55:12.891Z,19.33
2023-05-13T02:57:37.693Z,21.38
2023-05-13T03:00:01.008Z,18.00
2023-05-13T03:02:24.638Z,17.90
2023-05-13T03:04:49.379Z,18.45
2023-05-13T03:07:12.706Z,17.95
2023-05-13T03:09:39.086Z,17.10
2023-05-13T03:12:03.639Z,19.40
2023-05-13T03:14:26.890Z,19.33
2023-05-13T03:16:50.338Z,20.45
2023-05-13T03:19:13.802Z,20.52
2023-05-13T03:21:39.152Z,18.52
2023-05-13T03:24:05.251Z,19.95
2023-05-13T03:26:28.576Z,17.65
2023-05-13T03:28:52.234Z,17.98
2023-05-13T03:31:16.058Z,18.10
2023-05-13T03:33:41.098Z,19.73
2023-05-13T03:36:06.245Z,16.83
2023-05-13T03:38:31.220Z,16.08
2023-05-13T03:40:54.667Z,17.85
2023-05-13T03:43:18.046Z,18.70
2023-05-13T03:45:47.686Z,19.30
2023-05-13T03:48:14.245Z,21.90
2023-05-13T03:50:37.641Z,18.30
2023-05-13T03:53:00.909Z,17.45
2023-05-13T03:55:26.411Z,21.30
2023-05-13T03:57:51.297Z,18.65
2023-05-13T04:00:17.968Z,20.98
2023-05-13T04:02:43.800Z,21.23
2023-05-13T04:05:09.591Z,16.88
2023-05-13T04:07:32.957Z,20.13
2023-05-13T04:09:56.222Z,20.70
2023-05-13T04:12:21.847Z,20.05
2023-05-13T04:14:45.116Z,19.05
2023-05-13T04:17:08.425Z,20.05
2023-05-13T04:19:31.761Z,19.17
2023-05-13T04:21:54.991Z,19.08
2023-05-13T04:24:19.771Z,18.33
2023-05-13T04:26:45.643Z,22.60
2023-05-13T04:29:10.387Z,17.75
2023-05-13T04:31:33.737Z,17.08
2023-05-13T04:33:58.606Z,19.20
2023-05-13T04:36:22.103Z,19.25
2023-05-13T04:38:45.626Z,18.25
2023-05-13T04:41:09.797Z,21.48
2023-05-13T04:43:38.324Z,18.52
2023-05-13T04:46:03.600Z,16.92
2023-05-13T04:48:28.579Z,17.05
2023-05-13T04:50:54.110Z,17.95
2023-05-13T04:53:17.850Z,19.17
2023-05-13T04:55:41.656Z,20.63
2023-05-13T04:58:04.924Z,22.25
2023-05-13T05:00:28.859Z,18.30
2023-05-13T05:02:53.944Z,20.60
2023-05-13T05:05:18.805Z,19.83
2023-05-13T05:07:42.787Z,21.13
2023-05-13T05:10:07.690Z,19.50
2023-05-13T05:12:32.710Z,21.92
2023-05-13T05:14:55.964Z,16.63
2023-05-13T05:17:19.577Z,18.00
2023-05-13T05:19:44.439Z,17.60
2023-05-13T05:22:08.904Z,21.45
2023-05-13T05:24:32.198Z,18.35
2023-05-13T05:26:56.807Z,19.73
2023-05-13T05:29:20.437Z,19.55
2023-05-13T05:31:44.252Z,15.55
2023-05-13T05:34:07.757Z,16.13
2023-05-13T05:36:33.200Z,16.70
2023-05-13T05:38:58.983Z,17.88
2023-05-13T05:41:28.268Z,17.77
2023-05-13T05:43:51.496Z,17.88
2023-05-13T05:46:16.048Z,16.67
2023-05-13T05:48:39.363Z,17.27
2023-05-13T05:51:02.647Z,19.25
2023-05-13T05:53:29.696Z,15.65
2023-05-13T05:55:53.331Z,18.05
2023-05-13T05:58:17.744Z,16.45
2023-05-13T06:00:41.775Z,17.17
2023-05-13T06:03:06.056Z,16.05
2023-05-13T06:05:29.561Z,15.48
2023-05-13T06:07:53.237Z,20.15
2023-05-13T06:10:18.264Z,17.75
2023-05-13T06:12:42.299Z,17.35
2023-05-13T06:15:10.627Z,18.63
2023-05-13T06:17:33.945Z,17.10
2023-05-13T06:19:57.394Z,18.65
2023-05-13T06:22:20.834Z,18.33
2023-05-13T06:24:44.800Z,20.55
2023-05-13T06:27:12.343Z,16.08
2023-05-13T06:29:35.683Z,18.45
2023-05-13T06:31:59.159Z,17.20
2023-05-13T06:34:22.514Z,18.60
2023-05-13T06:36:46.288Z,17.38
2023-05-13T06:39:11.298Z,18.30
2023-05-13T06:41:35.767Z,14.85
2023-05-13T06:44:07.819Z,12.82
2023-05-13T06:46:35.530Z,15.65
2023-05-13T06:48:58.979Z,14.00
2023-05-13T06:51:22.195Z,16.10
2023-05-13T06:53:45.448Z,17.05
2023-05-13T06:56:08.983Z,15.85
2023-05-13T06:58:32.310Z,18.23
2023-05-13T07:01:01.625Z,16.65
2023-05-13T07:03:25.015Z,14.68
2023-05-13T07:05:48.246Z,15.10
2023-05-13T07:08:17.716Z,15.45
2023-05-13T07:10:41.029Z,17.23
2023-05-13T07:13:04.658Z,12.10
2023-05-13T07:15:28.062Z,13.63
2023-05-13T07:17:52.760Z,16.08
2023-05-13T07:20:16.237Z,12.75
2023-05-13T07:22:39.562Z,15.65
2023-05-13T07:25:03.285Z,12.15
2023-05-13T07:27:26.734Z,14.13
2023-05-13T07:29:50.071Z,14.93
2023-05-13T07:32:13.359Z,14.48
2023-05-13T07:34:38.669Z,16.55
2023-05-13T07:37:02.202Z,11.98
2023-05-13T07:39:26.696Z,13.73
2023-05-13T07:41:50.113Z,11.73
2023-05-13T07:44:13.484Z,12.23
2023-05-13T07:46:36.865Z,11.27
2023-05-13T07:49:00.204Z,10.63
2023-05-13T07:51:24.843Z,11.25
2023-05-13T07:53:48.150Z,10.63
2023-05-13T07:56:11.432Z,9.45
2023-05-13T07:58:34.812Z,10.20
2023-05-13T08:00:58.268Z,10.20
2023-05-13T08:03:21.668Z,8.77
2023-05-13T08:05:45.891Z,9.18
2023-05-13T08:08:10.551Z,8.57
2023-05-13T08:10:33.924Z,10.02
2023-05-13T08:12:57.880Z,10.95
2023-05-13T08:15:21.579Z,7.70
2023-05-13T08:17:45.117Z,7.97
2023-05-13T08:20:11.276Z,8.23
2023-05-13T08:22:34.666Z,10.38
2023-05-13T08:25:00.894Z,8.40
2023-05-13T08:27:24.133Z,10.40
2023-05-13T08:29:47.406Z,9.73
2023-05-13T08:32:10.978Z,10.15
2023-05-13T08:34:34.610Z,10.38
2023-05-13T08:36:57.926Z,10.07
2023-05-13T08:39:21.294Z,11.38
2023-05-13T08:41:46.240Z,10.55
2023-05-13T08:44:13.319Z,7.32
2023-05-13T08:46:39.165Z,17.02
2023-05-13T08:49:04.642Z,7.80
2023-05-13T08:51:28.776Z,9.13
2023-05-13T08:53:54.179Z,13.30
2023-05-13T08:56:17.495Z,8.95
2023-05-13T08:58:42.909Z,6.53
2023-05-13T09:01:08.385Z,5.78
2023-05-13T09:03:32.233Z,9.10
2023-05-13T09:05:55.611Z,11.23
2023-05-13T09:08:19.001Z,9.02
2023-05-13T09:10:42.482Z,8.85
2023-05-13T09:13:06.133Z,9.65
2023-05-13T09:15:31.552Z,9.45
2023-05-13T09:17:59.288Z,8.20
2023-05-13T09:20:25.409Z,6.38
2023-05-13T09:22:50.296Z,8.38
2023-05-13T09:25:14.924Z,8.95
2023-05-13T09:27:40.101Z,9.15
2023-05-13T09:30:03.528Z,8.07
2023-05-13T09:32:28.513Z,7.28
2023-05-13T09:34:51.919Z,8.00
2023-05-13T09:37:19.452Z,6.78
2023-05-13T09:39:43.485Z,12.27
2023-05-13T09:42:15.708Z,10.35
2023-05-13T09:44:39.951Z,14.43
2023-05-13T09:47:03.644Z,9.32
2023-05-13T09:49:29.692Z,11.75
2023-05-13T09:51:53.022Z,14.63
2023-05-13T09:54:16.367Z,9.80
2023-05-13T09:56:39.620Z,7.70
2023-05-13T09:59:03.690Z,8.77
2023-05-13T10:01:28.413Z,7.20
2023-05-13T10:03:52.433Z,8.27
2023-05-13T10:06:18.932Z,7.20
2023-05-13T10:08:43.491Z,10.57
2023-05-13T10:11:08.200Z,9.35
2023-05-13T10:13:33.691Z,7.00
2023-05-13T10:15:57.099Z,12.38
2023-05-13T10:18:22.216Z,6.05
2023-05-13T10:20:45.957Z,7.65
2023-05-13T10:23:11.477Z,12.27
2023-05-13T10:25:34.707Z,7.07
2023-05-13T10:27:59.330Z,5.82
2023-05-13T10:30:26.266Z,6.50
2023-05-13T10:32:50.171Z,7.95
2023-05-13T10:35:15.749Z,6.65
2023-05-13T10:38:03.949Z,7.85
2023-05-13T10:41:03.058Z,7.50
2023-05-13T10:43:29.944Z,4.05
2023-05-13T10:45:58.303Z,6.57
2023-05-13T10:48:21.798Z,6.25
2023-05-13T10:50:56.126Z,6.85
2023-05-13T10:53:23.399Z,6.80
2023-05-13T10:55:48.139Z,5.55
2023-05-13T10:58:13.535Z,3.70
2023-05-13T11:00:38.851Z,4.97
2023-05-13T11:03:15.335Z,7.35
2023-05-13T11:05:42.151Z,6.22
2023-05-13T11:08:06.197Z,8.50
2023-05-13T11:10:31.269Z,5.47
2023-05-13T11:13:25.781Z,10.95
2023-05-13T11:15:52.903Z,6.70
2023-05-13T11:18:16.758Z,6.47
2023-05-13T11:20:51.683Z,6.35
2023-05-13T11:23:20.542Z,7.65
2023-05-13T11:25:45.149Z,4.78
2023-05-13T11:28:09.080Z,6.03
2023-05-13T11:30:34.116Z,13.68
2023-05-13T11:32:59.463Z,9.13
2023-05-13T11:35:24.588Z,6.95
2023-05-13T11:37:49.112Z,5.03
2023-05-13T11:40:22.737Z,4.97
2023-05-13T11:42:46.882Z,5.78
2023-05-13T11:45:11.637Z,3.40
2023-05-13T11:47:36.514Z,7.07
2023-05-13T11:49:59.908Z,4.78
2023-05-13T11:52:23.139Z,6.70
2023-05-13T11:54:49.318Z,7.45
2023-05-13T11:57:23.994Z,4.78
2023-05-13T11:59:52.587Z,7.07
2023-05-13T12:02:15.864Z,6.40
2023-05-13T12:04:40.668Z,9.43
2023-05-13T12:07:04.840Z,6.40
2023-05-13T12:09:28.141Z,3.38
2023-05-13T12:11:52.596Z,3.42
2023-05-13T12:14:16.126Z,8.02
2023-05-13T12:16:39.570Z,8.30
2023-05-13T12:19:07.248Z,4.80
2023-05-13T12:21:34.490Z,6.13
2023-05-13T12:23:58.741Z,8.35
2023-05-13T12:26:22.075Z,5.18
2023-05-13T12:28:45.420Z,5.78
2023-05-13T12:31:08.766Z,6.32
2023-05-13T12:33:34.273Z,6.38
2023-05-13T12:36:19.997Z,4.07
2023-05-13T12:39:01.291Z,5.47
2023-05-13T12:41:25.985Z,6.03
2023-05-13T12:43:49.285Z,4.68
2023-05-13T12:46:12.764Z,6.35
2023-05-13T12:48:36.088Z,4.82
2023-05-13T12:51:01.274Z,3.63
2023-05-13T12:53:25.539Z,3.92
2023-05-13T12:55:50.346Z,6.15
2023-05-13T12:58:14.243Z,8.48
2023-05-13T13:00:37.668Z,5.95
2023-05-13T13:03:01.313Z,4.22
2023-05-13T13:05:25.959Z,6.55
2023-05-13T13:07:49.811Z,5.43
2023-05-13T13:10:13.218Z,5.80
2023-05-13T13:12:37.862Z,8.38
2023-05-13T13:15:01.435Z,4.18
2023-05-13T13:17:24.844Z,5.47
2023-05-13T13:19:48.134Z,8.65
2023-05-13T13:22:11.497Z,5.15
2023-05-13T13:24:35.514Z,7.32
2023-05-13T13:26:58.904Z,6.68
2023-05-13T13:29:23.732Z,5.35
2023-05-13T13:31:47.100Z,5.03
2023-05-13T13:34:12.088Z,3.70
2023-05-13T13:36:35.353Z,7.40
2023-05-13T13:38:58.694Z,5.28
2023-05-13T13:41:25.392Z,6.22
2023-05-13T13:43:48.690Z,6.13
2023-05-13T13:46:13.258Z,6.65
2023-05-13T13:48:36.773Z,6.25
2023-05-13T13:51:00.149Z,7.43
2023-05-13T13:53:23.647Z,6.00
2023-05-13T13:55:47.065Z,8.20
2023-05-13T13:58:10.532Z,5.22
2023-05-13T14:00:33.840Z,3.70
2023-05-13T14:02:58.589Z,5.32
2023-05-13T14:05:21.913Z,6.65
2023-05-13T14:07:46.266Z,5.10
2023-05-13T14:10:11.215Z,9.80
2023-05-13T14:12:35.797Z,4.45
2023-05-13T14:14:59.615Z,8.88
2023-05-13T14:17:22.976Z,6.72
2023-05-13T14:19:51.609Z,7.15
2023-05-13T14:22:14.881Z,5.38
2023-05-13T14:24:38.160Z,6.18
2023-05-13T14:27:01.672Z,6.30
2023-05-13T14:29:26.133Z,4.20
2023-05-13T14:31:50.423Z,6.10
2023-05-13T14:34:13.641Z,5.97
2023-05-13T14:36:38.769Z,3.55
2023-05-13T14:39:02.059Z,5.30
2023-05-13T14:41:25.694Z,5.32
2023-05-13T14:43:48.992Z,6.55
2023-05-13T14:46:12.319Z,6.32
2023-05-13T14:48:35.558Z,5.00
2023-05-13T14:51:02.542Z,7.72
2023-05-13T14:53:27.174Z,5.18
2023-05-13T14:55:51.604Z,3.92
2023-05-13T14:58:14.984Z,8.73
2023-05-13T15:00:38.885Z,5.03
2023-05-13T15:03:02.691Z,7.25
2023-05-13T15:05:26.798Z,6.57
2023-05-13T15:07:50.531Z,4.18
2023-05-13T15:10:15.121Z,7.47
2023-05-13T15:12:38.463Z,4.57
2023-05-13T15:15:01.763Z,7.13
2023-05-13T15:17:25.217Z,3.38
2023-05-13T15:19:48.545Z,4.70
2023-05-13T15:22:11.835Z,4.93
2023-05-13T15:24:35.275Z,9.85
2023-05-13T15:27:00.473Z,10.30
2023-05-13T15:29:23.772Z,5.35
2023-05-13T15:31:50.472Z,11.80
2023-05-13T15:34:13.710Z,9.35
2023-05-13T15:36:37.041Z,11.07
2023-05-13T15:39:02.518Z,8.32
2023-05-13T15:41:26.300Z,5.68
2023-05-13T15:43:51.182Z,6.82
2023-05-13T15:46:14.448Z,5.82
2023-05-13T15:48:38.084Z,5.25
2023-05-13T15:51:03.475Z,7.88
2023-05-13T15:53:27.395Z,12.48
2023-05-13T15:55:50.758Z,6.22
2023-05-13T15:58:14.048Z,6.70
2023-05-13T16:00:38.895Z,9.02
2023-05-13T16:03:02.327Z,13.40
2023-05-13T16:05:25.626Z,8.93
2023-05-13T16:07:48.998Z,11.75
2023-05-13T16:10:12.936Z,9.23
2023-05-13T16:12:36.241Z,7.70
2023-05-13T16:14:59.518Z,9.00
2023-05-13T16:17:24.187Z,7.50
2023-05-13T16:19:47.863Z,6.22
2023-05-13T16:22:30.328Z,10.43
2023-05-13T16:24:53.622Z,5.50
2023-05-13T16:27:16.832Z,8.90
2023-05-13T16:29:40.125Z,7.53
2023-05-13T16:32:03.668Z,6.03
2023-05-13T16:34:31.213Z,8.73
2023-05-13T16:36:55.869Z,7.40
2023-05-13T16:39:20.507Z,10.32
2023-05-13T16:41:43.807Z,10.27
2023-05-13T16:44:07.597Z,5.72
2023-05-13T16:46:35.381Z,7.93
2023-05-13T16:49:00.162Z,6.47
2023-05-13T16:51:25.066Z,9.98
2023-05-13T16:53:48.399Z,9.80
2023-05-13T16:56:12.088Z,9.18
2023-05-13T16:58:35.348Z,6.85
2023-05-13T17:00:59.469Z,7.22
2023-05-13T17:03:23.151Z,8.05
2023-05-13T17:05:46.533Z,7.80
2023-05-13T17:08:11.226Z,6.85
2023-05-13T17:10:35.049Z,7.70
2023-05-13T17:12:58.520Z,8.73
2023-05-13T17:15:21.887Z,8.63
2023-05-13T17:17:45.314Z,7.18
2023-05-13T17:20:10.169Z,9.90
2023-05-13T17:22:37.402Z,8.35
2023-05-13T17:25:02.116Z,8.82
2023-05-13T17:27:25.597Z,7.65
2023-05-13T17:29:48.981Z,10.13
2023-05-13T17:32:12.257Z,7.85
2023-05-13T17:34:35.525Z,9.32
2023-05-13T17:36:59.080Z,6.90
2023-05-13T17:39:22.296Z,8.10
2023-05-13T17:41:47.114Z,7.28
2023-05-13T17:44:10.345Z,9.18
2023-05-13T17:46:33.657Z,9.98
2023-05-13T17:48:57.123Z,9.57
2023-05-13T17:51:20.960Z,8.57
2023-05-13T17:53:44.159Z,7.57
2023-05-13T17:56:08.505Z,9.20
2023-05-13T17:58:33.274Z,9.43
2023-05-13T18:00:56.630Z,7.22
2023-05-13T18:03:21.647Z,7.40
2023-05-13T18:05:45.151Z,8.85
2023-05-13T18:08:08.575Z,7.45
2023-05-13T18:10:31.920Z,7.28
2023-05-13T18:12:55.310Z,6.57
2023-05-13T18:15:20.195Z,9.63
2023-05-13T18:17:43.505Z,7.88
2023-05-13T18:20:08.877Z,9.50
2023-05-13T18:22:32.394Z,6.35
2023-05-13T18:24:55.724Z,8.02
2023-05-13T18:27:19.084Z,7.68
2023-05-13T18:29:42.375Z,8.63
2023-05-13T18:32:07.723Z,9.70
2023-05-13T18:34:30.958Z,8.93
2023-05-13T18:36:54.908Z,7.88
2023-05-13T18:39:18.175Z,8.38
2023-05-13T18:41:41.626Z,8.88
2023-05-13T18:44:05.031Z,8.88
2023-05-13T18:46:28.641Z,9.70
2023-05-13T18:48:53.355Z,11.80
2023-05-13T18:51:17.369Z,11.30
2023-05-13T18:53:40.690Z,14.13
2023-05-13T18:56:04.001Z,13.20
2023-05-13T18:58:28.588Z,12.55
2023-05-13T19:00:52.489Z,10.68
2023-05-13T19:03:16.638Z,14.10
2023-05-13T19:05:41.679Z,13.98
2023-05-13T19:08:05.349Z,14.02
2023-05-13T19:10:28.757Z,11.15
2023-05-13T19:12:52.214Z,10.00
2023-05-13T19:15:15.766Z,11.90
2023-05-13T19:17:40.952Z,11.02
2023-05-13T19:20:04.468Z,10.85
2023-05-13T19:22:29.142Z,10.30
2023-05-13T19:24:52.392Z,11.57
2023-05-13T19:27:15.832Z,13.10
2023-05-13T19:29:39.154Z,14.18
2023-05-13T19:32:02.576Z,12.50
2023-05-13T19:34:25.976Z,11.38
2023-05-13T19:36:49.692Z,10.88
2023-05-13T19:39:14.349Z,10.68
2023-05-13T19:41:38.548Z,13.82
2023-05-13T19:44:02.402Z,16.67
2023-05-13T19:46:26.020Z,19.65
2023-05-13T19:48:49.762Z,17.15
2023-05-13T19:51:13.046Z,16.77
2023-05-13T19:53:36.812Z,20.45
2023-05-13T19:56:01.742Z,17.58
2023-05-13T19:58:25.497Z,14.80
2023-05-13T20:00:48.964Z,19.90
2023-05-13T20:03:12.348Z,18.85
2023-05-13T20:05:35.982Z,20.83
2023-05-13T20:07:59.553Z,19.90
2023-05-13T20:10:23.273Z,19.92
2023-05-13T20:12:48.140Z,17.50
2023-05-13T20:15:12.094Z,19.13
2023-05-13T20:17:35.423Z,18.98
2023-05-13T20:19:58.783Z,18.92
2023-05-13T20:22:22.655Z,18.52
2023-05-13T20:24:46.761Z,18.27
2023-05-13T20:27:10.585Z,18.70
2023-05-13T20:29:37.521Z,18.02
2023-05-13T20:32:00.898Z,18.92
2023-05-13T20:34:24.518Z,16.98
2023-05-13T20:36:48.128Z,20.45
2023-05-13T20:39:11.349Z,16.65
2023-05-13T20:41:34.717Z,17.77
2023-05-13T20:43:58.039Z,15.95
2023-05-13T20:46:23.325Z,15.10
2023-05-13T20:48:47.887Z,15.32
2023-05-13T20:51:11.853Z,16.05
2023-05-13T20:53:35.590Z,18.88
2023-05-13T20:55:58.869Z,15.68
2023-05-13T20:58:22.125Z,17.00
2023-05-13T21:00:45.473Z,20.02
2023-05-13T21:03:10.297Z,16.63
2023-05-13T21:05:33.726Z,17.95
2023-05-13T21:07:56.979Z,21.00
2023-05-13T21:10:20.452Z,17.17
2023-05-13T21:12:47.605Z,15.80
2023-05-13T21:15:14.271Z,16.00
2023-05-13T21:17:38.125Z,16.25
2023-05-13T21:20:04.158Z,23.92
2023-05-13T21:22:27.452Z,20.40
2023-05-13T21:24:50.787Z,19.58
2023-05-13T21:27:14.083Z,17.88
2023-05-13T21:29:37.343Z,18.95
2023-05-13T21:32:00.651Z,18.65
2023-05-13T21:34:23.952Z,19.08
2023-05-13T21:36:48.518Z,17.05
2023-05-13T21:39:11.749Z,18.05
2023-05-13T21:41:35.143Z,17.25
2023-05-13T21:43:58.528Z,16.58
2023-05-13T21:46:21.797Z,16.98
2023-05-13T21:48:46.649Z,18.48
2023-05-13T21:51:10.376Z,18.00
2023-05-13T21:53:35.056Z,19.30
2023-05-13T21:56:00.111Z,19.38
2023-05-13T21:58:23.908Z,20.45
2023-05-13T22:00:47.295Z,20.33
2023-05-13T22:03:10.706Z,19.60
2023-05-13T22:05:34.040Z,17.10
2023-05-13T22:07:57.401Z,19.38
2023-05-13T22:10:22.169Z,15.27
2023-05-13T22:12:46.101Z,15.13
2023-05-13T22:15:11.133Z,14.77
2023-05-13T22:17:37.225Z,15.73
2023-05-13T22:20:00.978Z,15.27
2023-05-13T22:22:24.255Z,16.48
2023-05-13T22:24:47.521Z,16.20
2023-05-13T22:27:12.175Z,16.23
2023-05-13T22:29:35.768Z,15.48
2023-05-13T22:32:03.756Z,15.45
2023-05-13T22:34:27.788Z,14.48
2023-05-13T22:36:51.053Z,16.38
2023-05-13T22:39:15.849Z,16.00
2023-05-13T22:41:39.279Z,17.80
2023-05-13T22:44:03.936Z,15.23
2023-05-13T22:46:27.278Z,17.55
2023-05-13T22:48:50.649Z,16.70
2023-05-13T22:51:13.876Z,14.80
2023-05-13T22:53:37.670Z,14.90
2023-05-13T22:56:00.937Z,17.08
2023-05-13T22:58:24.231Z,15.23
2023-05-13T23:00:49.486Z,14.02
2023-05-13T23:03:12.797Z,15.55
2023-05-13T23:05:36.134Z,15.52
2023-05-13T23:07:59.399Z,14.57
2023-05-13T23:10:22.816Z,17.85
2023-05-13T23:12:46.338Z,20.17
2023-05-13T23:15:11.701Z,19.70
2023-05-13T23:17:36.414Z,21.92
2023-05-13T23:19:59.848Z,19.67
2023-05-13T23:22:23.240Z,18.95
2023-05-13T23:24:46.525Z,18.38
2023-05-13T23:27:09.785Z,20.35
2023-05-13T23:29:33.150Z,14.68
2023-05-13T23:31:56.943Z,15.02
2023-05-13T23:34:21.897Z,16.63
2023-05-13T23:36:45.169Z,15.23
2023-05-13T23:39:08.424Z,14.48
2023-05-13T23:41:31.812Z,15.23
2023-05-13T23:43:55.415Z,14.45
2023-05-13T23:46:19.198Z,15.45
2023-05-13T23:48:42.502Z,15.23
2023-05-13T23:51:07.577Z,16.00
2023-05-13T23:53:30.811Z,15.35
2023-05-13T23:55:54.379Z,14.45
2023-05-13T23:58:18.113Z,16.58
